sensor_id;sensor_type;location;lat;lon;timestamp;pressure;altitude;pressure_sealevel;temperature;humidity
36600;BME280;35385;55.668;37.508;2023-05-25T00:00:43;99349.81;;;16.60;100.00
36600;BME280;35385;55.668;37.508;2023-05-25T00:01:43;99345.41;;;16.59;100.00
36600;BME280;35385;55.668;37.508;2023-05-25T00:02:48;99345.94;;;16.63;100.00
36600;BME280;35385;55.668;37.508;2023-05-25T00:03:48;99344.59;;;16.67;100.00
36600;BME280;35385;55.668;37.508;2023-05-25T00:04:51;99350.31;;;16.72;100.00
36600;BME280;35385;55.668;37.508;2023-05-25T00:05:52;99346.63;;;16.73;100.00
36600;BME280;35385;55.668;37.508;2023-05-25T00:06:53;99352.19;;;16.72;100.00
36600;BME280;35385;55.668;37.508;2023-05-25T00:07:53;99348.81;;;16.70;100.00
36600;BME280;35385;55.668;37.508;2023-05-25T00:08:55;99346.13;;;16.70;100.00
36600;BME280;35385;55.668;37.508;2023-05-25T00:09:56;99344.44;;;16.69;100.00
36600;BME280;35385;55.668;37.508;2023-05-25T00:10:56;99347.13;;;16.69;100.00
36600;BME280;35385;55.668;37.508;2023-05-25T00:11:57;99341.56;;;16.70;100.00
36600;BME280;35385;55.668;37.508;2023-05-25T00:12:58;99343.72;;;16.75;100.00
36600;BME280;35385;55.668;37.508;2023-05-25T00:13:59;99343.38;;;16.78;100.00
36600;BME280;35385;55.668;37.508;2023-05-25T00:15:00;99345.41;;;16.84;100.00
36600;BME280;35385;55.668;37.508;2023-05-25T00:16:00;99340.66;;;16.86;100.00
36600;BME280;35385;55.668;37.508;2023-05-25T00:17:01;99347.38;;;16.90;100.00
36600;BME280;35385;55.668;37.508;2023-05-25T00:18:03;99344.03;;;16.88;100.00
36600;BME280;35385;55.668;37.508;2023-05-25T00:19:04;99347.06;;;16.85;100.00
36600;BME280;35385;55.668;37.508;2023-05-25T00:20:04;99341.34;;;16.80;100.00
36600;BME280;35385;55.668;37.508;2023-05-25T00:21:06;99338.16;;;16.76;100.00
36600;BME280;35385;55.668;37.508;2023-05-25T00:22:07;99344.41;;;16.77;100.00
36600;BME280;35385;55.668;37.508;2023-05-25T00:23:07;99346.41;;;16.75;100.00
36600;BME280;35385;55.668;37.508;2023-05-25T00:24:08;99343.72;;;16.75;100.00
36600;BME280;35385;55.668;37.508;2023-05-25T00:25:08;99341.41;;;16.72;100.00
36600;BME280;35385;55.668;37.508;2023-05-25T00:26:09;99338.53;;;16.73;100.00
36600;BME280;35385;55.668;37.508;2023-05-25T00:27:09;99342.53;;;16.77;100.00
36600;BME280;35385;55.668;37.508;2023-05-25T00:28:10;99344.22;;;16.78;100.00
36600;BME280;35385;55.668;37.508;2023-05-25T00:29:10;99346.75;;;16.80;100.00
36600;BME280;35385;55.668;37.508;2023-05-25T00:30:11;99346.75;;;16.80;100.00
36600;BME280;35385;55.668;37.508;2023-05-25T00:31:12;99344.06;;;16.80;100.00
36600;BME280;35385;55.668;37.508;2023-05-25T00:32:12;99345.91;;;16.79;100.00
36600;BME280;35385;55.668;37.508;2023-05-25T00:33:13;99350.63;;;16.77;100.00
36600;BME280;35385;55.668;37.508;2023-05-25T00:34:13;99347.94;;;16.77;100.00
36600;BME280;35385;55.668;37.508;2023-05-25T00:35:14;99344.56;;;16.75;100.00
36600;BME280;35385;55.668;37.508;2023-05-25T00:36:14;99346.63;;;16.73;100.00
36600;BME280;35385;55.668;37.508;2023-05-25T00:37:15;99341.56;;;16.70;100.00
36600;BME280;35385;55.668;37.508;2023-05-25T00:38:16;99337.88;;;16.63;100.00
36600;BME280;35385;55.668;37.508;2023-05-25T00:39:17;99345.78;;;16.56;100.00
36600;BME280;35385;55.668;37.508;2023-05-25T00:40:17;99341.06;;;16.50;100.00
36600;BME280;35385;55.668;37.508;2023-05-25T00:41:18;99341.41;;;16.47;100.00
36600;BME280;35385;55.668;37.508;2023-05-25T00:42:19;99338.53;;;16.49;100.00
36600;BME280;35385;55.668;37.508;2023-05-25T00:43:20;99332.31;;;16.48;100.00
36600;BME280;35385;55.668;37.508;2023-05-25T00:44:20;99333.50;;;16.46;100.00
36600;BME280;35385;55.668;37.508;2023-05-25T00:45:21;99334.34;;;16.46;100.00
36600;BME280;35385;55.668;37.508;2023-05-25T00:46:22;99325.59;;;16.44;100.00
36600;BME280;35385;55.668;37.508;2023-05-25T00:47:22;99325.94;;;16.41;100.00
36600;BME280;35385;55.668;37.508;2023-05-25T00:48:26;99321.72;;;16.39;100.00
36600;BME280;35385;55.668;37.508;2023-05-25T00:49:26;99313.81;;;16.37;100.00
36600;BME280;35385;55.668;37.508;2023-05-25T00:51:34;99313.13;;;16.35;100.00
36600;BME280;35385;55.668;37.508;2023-05-25T00:52:35;99308.41;;;16.37;100.00
36600;BME280;35385;55.668;37.508;2023-05-25T00:53:35;99308.09;;;16.40;100.00
36600;BME280;35385;55.668;37.508;2023-05-25T00:54:38;99305.22;;;16.42;100.00
36600;BME280;35385;55.668;37.508;2023-05-25T00:56:14;99314.81;;;16.44;100.00
36600;BME280;35385;55.668;37.508;2023-05-25T00:57:17;99315.50;;;16.38;100.00
36600;BME280;35385;55.668;37.508;2023-05-25T00:58:21;99308.75;;;16.34;100.00
36600;BME280;35385;55.668;37.508;2023-05-25T00:59:25;99313.63;;;16.31;100.00
36600;BME280;35385;55.668;37.508;2023-05-25T01:00:27;99308.63;;;16.27;100.00
36600;BME280;35385;55.668;37.508;2023-05-25T01:01:28;99303.22;;;16.27;100.00
36600;BME280;35385;55.668;37.508;2023-05-25T01:02:32;99302.38;;;16.27;100.00
36600;BME280;35385;55.668;37.508;2023-05-25T01:03:33;99302.38;;;16.27;100.00
36600;BME280;35385;55.668;37.508;2023-05-25T01:04:40;99305.75;;;16.29;100.00
36600;BME280;35385;55.668;37.508;2023-05-25T01:05:44;99291.28;;;16.30;100.00
36600;BME280;35385;55.668;37.508;2023-05-25T01:06:46;99296.28;;;16.33;100.00
36600;BME280;35385;55.668;37.508;2023-05-25T01:07:49;99297.13;;;16.34;100.00
36600;BME280;35385;55.668;37.508;2023-05-25T01:08:52;99297.97;;;16.34;100.00
36600;BME280;35385;55.668;37.508;2023-05-25T01:09:57;99291.56;;;16.35;100.00
36600;BME280;35385;55.668;37.508;2023-05-25T01:10:57;99291.91;;;16.32;100.00
36600;BME280;35385;55.668;37.508;2023-05-25T01:11:59;99287.91;;;16.28;100.00
36600;BME280;35385;55.668;37.508;2023-05-25T01:13:01;99286.06;;;16.29;100.00
36600;BME280;35385;55.668;37.508;2023-05-25T01:14:02;99286.88;;;16.29;100.00
36600;BME280;35385;55.668;37.508;2023-05-25T01:15:03;99291.59;;;16.27;100.00
36600;BME280;35385;55.668;37.508;2023-05-25T01:16:05;99295.31;;;16.26;100.00
36600;BME280;35385;55.668;37.508;2023-05-25T01:17:06;99289.09;;;16.25;100.00
36600;BME280;35385;55.668;37.508;2023-05-25T01:18:07;99287.94;;;16.12;100.00
36600;BME280;35385;55.668;37.508;2023-05-25T01:19:08;99288.75;;;16.04;100.00
36600;BME280;35385;55.668;37.508;2023-05-25T01:20:10;99285.59;;;16.01;100.00
36600;BME280;35385;55.668;37.508;2023-05-25T01:21:19;99286.59;;;16.00;100.00
36600;BME280;35385;55.668;37.508;2023-05-25T01:22:27;99285.59;;;16.01;100.00
36600;BME280;35385;55.668;37.508;2023-05-25T01:23:31;99285.59;;;16.01;100.00
36600;BME280;35385;55.668;37.508;2023-05-25T01:24:55;99278.34;;;16.01;100.00
36600;BME280;35385;55.668;37.508;2023-05-25T01:25:54;99288.59;;;16.06;100.00
36600;BME280;35385;55.668;37.508;2023-05-25T01:27:03;99280.19;;;16.09;100.00
36600;BME280;35385;55.668;37.508;2023-05-25T01:28:08;99285.06;;;16.13;100.00
36600;BME280;35385;55.668;37.508;2023-05-25T01:29:10;99282.00;;;16.16;100.00
36600;BME280;35385;55.668;37.508;2023-05-25T01:30:12;99285.38;;;16.18;100.00
36600;BME280;35385;55.668;37.508;2023-05-25T01:31:12;99278.81;;;16.21;100.00
36600;BME280;35385;55.668;37.508;2023-05-25T01:32:14;99278.47;;;16.24;100.00
36600;BME280;35385;55.668;37.508;2023-05-25T01:33:17;99280.31;;;16.23;100.00
36600;BME280;35385;55.668;37.508;2023-05-25T01:34:18;99279.47;;;16.23;100.00
36600;BME280;35385;55.668;37.508;2023-05-25T01:35:19;99282.84;;;16.25;100.00
36600;BME280;35385;55.668;37.508;2023-05-25T01:36:20;99284.53;;;16.26;100.00
36600;BME280;35385;55.668;37.508;2023-05-25T01:37:21;99286.22;;;16.27;100.00
36600;BME280;35385;55.668;37.508;2023-05-25T01:38:23;99284.88;;;16.23;100.00
36600;BME280;35385;55.668;37.508;2023-05-25T01:39:24;99282.50;;;16.20;100.00
36600;BME280;35385;55.668;37.508;2023-05-25T01:40:24;99284.53;;;16.18;100.00
36600;BME280;35385;55.668;37.508;2023-05-25T01:41:26;99282.22;;;16.15;100.00
36600;BME280;35385;55.668;37.508;2023-05-25T01:42:26;99286.09;;;16.12;100.00
36600;BME280;35385;55.668;37.508;2023-05-25T01:43:26;99280.03;;;16.10;100.00
36600;BME280;35385;55.668;37.508;2023-05-25T01:44:27;99285.06;;;16.13;100.00
36600;BME280;35385;55.668;37.508;2023-05-25T01:45:28;99286.38;;;16.17;100.00
36600;BME280;35385;55.668;37.508;2023-05-25T01:46:33;99289.59;;;16.21;100.00
36600;BME280;35385;55.668;37.508;2023-05-25T01:48:53;99291.59;;;16.27;100.00
36600;BME280;35385;55.668;37.508;2023-05-25T01:50:02;99283.34;;;16.29;100.00
36600;BME280;35385;55.668;37.508;2023-05-25T01:51:16;99294.59;;;16.32;100.00
36600;BME280;35385;55.668;37.508;2023-05-25T01:52:21;99295.28;;;16.34;100.00
36600;BME280;35385;55.668;37.508;2023-05-25T01:53:23;99294.94;;;16.37;100.00
36600;BME280;35385;55.668;37.508;2023-05-25T01:54:29;99296.47;;;16.40;100.00
36600;BME280;35385;55.668;37.508;2023-05-25T01:55:35;99305.22;;;16.42;100.00
36600;BME280;35385;55.668;37.508;2023-05-25T01:56:36;99297.97;;;16.42;100.00
36600;BME280;35385;55.668;37.508;2023-05-25T01:57:39;99300.31;;;16.45;100.00
36600;BME280;35385;55.668;37.508;2023-05-25T01:58:42;99301.81;;;16.48;100.00
36600;BME280;35385;55.668;37.508;2023-05-25T01:59:44;99305.19;;;16.50;100.00
36600;BME280;35385;55.668;37.508;2023-05-25T02:00:45;99306.03;;;16.50;100.00
36600;BME280;35385;55.668;37.508;2023-05-25T02:01:47;99300.97;;;16.47;100.00
36600;BME280;35385;55.668;37.508;2023-05-25T02:02:47;99304.50;;;16.48;100.00
36600;BME280;35385;55.668;37.508;2023-05-25T02:03:49;99308.72;;;16.50;100.00
36600;BME280;35385;55.668;37.508;2023-05-25T02:04:51;99307.72;;;16.51;100.00
36600;BME280;35385;55.668;37.508;2023-05-25T02:05:52;99307.53;;;16.45;100.00
36600;BME280;35385;55.668;37.508;2023-05-25T02:06:53;99305.38;;;16.40;100.00
36600;BME280;35385;55.668;37.508;2023-05-25T02:07:56;99315.84;;;16.35;100.00
36600;BME280;35385;55.668;37.508;2023-05-25T02:08:56;99303.88;;;16.38;100.00
36600;BME280;35385;55.668;37.508;2023-05-25T02:09:57;99309.75;;;16.41;100.00
36600;BME280;35385;55.668;37.508;2023-05-25T02:10:57;99307.38;;;16.46;100.00
36600;BME280;35385;55.668;37.508;2023-05-25T02:11:57;99307.03;;;16.49;100.00
36600;BME280;35385;55.668;37.508;2023-05-25T02:12:58;99307.22;;;16.48;100.00
36600;BME280;35385;55.668;37.508;2023-05-25T02:13:58;99308.72;;;16.50;100.00
36600;BME280;35385;55.668;37.508;2023-05-25T02:14:59;99307.38;;;16.54;100.00
36600;BME280;35385;55.668;37.508;2023-05-25T02:15:59;99307.50;;;16.61;100.00
36600;BME280;35385;55.668;37.508;2023-05-25T02:17:00;99311.88;;;16.62;100.00
36600;BME280;35385;55.668;37.508;2023-05-25T02:18:01;99312.41;;;16.66;100.00
36600;BME280;35385;55.668;37.508;2023-05-25T02:19:02;99306.69;;;16.69;100.00
36600;BME280;35385;55.668;37.508;2023-05-25T02:20:03;99314.25;;;16.73;100.00
36600;BME280;35385;55.668;37.508;2023-05-25T02:21:07;99302.94;;;16.78;100.00
36600;BME280;35385;55.668;37.508;2023-05-25T02:22:07;99313.38;;;16.81;100.00
36600;BME280;35385;55.668;37.508;2023-05-25T02:23:08;99319.09;;;16.86;100.00
36600;BME280;35385;55.668;37.508;2023-05-25T02:24:08;99319.56;;;16.89;100.00
36600;BME280;35385;55.668;37.508;2023-05-25T02:25:10;99314.66;;;16.93;100.00
36600;BME280;35385;55.668;37.508;2023-05-25T02:26:10;99319.03;;;16.94;100.00
36600;BME280;35385;55.668;37.508;2023-05-25T02:27:10;99318.19;;;16.93;100.00
36600;BME280;35385;55.668;37.508;2023-05-25T02:28:11;99318.72;;;16.89;100.00
36600;BME280;35385;55.668;37.508;2023-05-25T02:29:12;99332.59;;;16.86;100.00
36600;BME280;35385;55.668;37.508;2023-05-25T02:30:12;99317.25;;;16.86;100.00
36600;BME280;35385;55.668;37.508;2023-05-25T02:31:13;99328.31;;;16.91;100.00
36600;BME280;35385;55.668;37.508;2023-05-25T02:32:13;99326.97;;;16.95;100.00
36600;BME280;35385;55.668;37.508;2023-05-25T02:33:14;99330.84;;;17.01;100.00
36600;BME280;35385;55.668;37.508;2023-05-25T02:34:14;99325.72;;;17.06;100.00
36600;BME280;35385;55.668;37.508;2023-05-25T02:35:17;99332.28;;;17.12;100.00
36600;BME280;35385;55.668;37.508;2023-05-25T02:36:17;99328.88;;;17.18;100.00
36600;BME280;35385;55.668;37.508;2023-05-25T02:37:18;99331.03;;;17.22;100.00
36600;BME280;35385;55.668;37.508;2023-05-25T02:38:18;99334.06;;;17.27;100.00
36600;BME280;35385;55.668;37.508;2023-05-25T02:39:18;99327.09;;;17.33;100.00
36600;BME280;35385;55.668;37.508;2023-05-25T02:40:19;99328.25;;;17.39;100.00
36600;BME280;35385;55.668;37.508;2023-05-25T02:41:20;99325.22;;;17.42;100.00
36600;BME280;35385;55.668;37.508;2023-05-25T02:42:23;99326.50;;;17.46;100.00
36600;BME280;35385;55.668;37.508;2023-05-25T02:43:23;99329.03;;;17.47;100.00
36600;BME280;35385;55.668;37.508;2023-05-25T02:44:23;99325.81;;;17.52;100.00
36600;BME280;35385;55.668;37.508;2023-05-25T02:45:24;99313.81;;;17.54;100.00
36600;BME280;35385;55.668;37.508;2023-05-25T02:46:25;99313.28;;;17.59;100.00
36600;BME280;35385;55.668;37.508;2023-05-25T02:47:25;99317.28;;;17.63;100.00
36600;BME280;35385;55.668;37.508;2023-05-25T02:48:25;99317.63;;;17.68;100.00
36600;BME280;35385;55.668;37.508;2023-05-25T02:49:26;99311.22;;;17.69;100.00
36600;BME280;35385;55.668;37.508;2023-05-25T02:50:26;99317.09;;;17.73;100.00
36600;BME280;35385;55.668;37.508;2023-05-25T02:51:27;99319.41;;;17.76;100.00
36600;BME280;35385;55.668;37.508;2023-05-25T02:52:27;99323.44;;;17.80;100.00
36600;BME280;35385;55.668;37.508;2023-05-25T02:53:29;99326.63;;;17.83;100.00
36600;BME280;35385;55.668;37.508;2023-05-25T02:54:30;99326.44;;;17.85;100.00
36600;BME280;35385;55.668;37.508;2023-05-25T02:55:30;99337.75;;;17.88;100.00
36600;BME280;35385;55.668;37.508;2023-05-25T02:56:30;99336.34;;;17.92;100.00
36600;BME280;35385;55.668;37.508;2023-05-25T02:57:31;99339.53;;;17.96;100.00
36600;BME280;35385;55.668;37.508;2023-05-25T02:58:31;99340.72;;;17.93;100.00
36600;BME280;35385;55.668;37.508;2023-05-25T02:59:31;99340.91;;;17.92;100.00
36600;BME280;35385;55.668;37.508;2023-05-25T03:00:32;99337.00;;;17.94;100.00
36600;BME280;35385;55.668;37.508;2023-05-25T03:01:32;99337.47;;;17.98;100.00
36600;BME280;35385;55.668;37.508;2023-05-25T03:02:33;99341.19;;;17.97;100.00
36600;BME280;35385;55.668;37.508;2023-05-25T03:03:34;99344.75;;;17.97;100.00
36600;BME280;35385;55.668;37.508;2023-05-25T03:04:34;99343.72;;;17.98;100.00
36600;BME280;35385;55.668;37.508;2023-05-25T03:05:37;99340.00;;;17.99;100.00
36600;BME280;35385;55.668;37.508;2023-05-25T03:06:37;99343.38;;;18.01;100.00
36600;BME280;35385;55.668;37.508;2023-05-25T03:07:38;99339.66;;;18.02;100.00
36600;BME280;35385;55.668;37.508;2023-05-25T03:08:39;99338.91;;;18.09;100.00
36600;BME280;35385;55.668;37.508;2023-05-25T03:09:40;99338.00;;;18.16;100.00
36600;BME280;35385;55.668;37.508;2023-05-25T03:10:40;99335.38;;;18.23;100.00
36600;BME280;35385;55.668;37.508;2023-05-25T03:11:41;99333.66;;;18.30;100.00
36600;BME280;35385;55.668;37.508;2023-05-25T03:12:41;99335.41;;;18.37;100.00
36600;BME280;35385;55.668;37.508;2023-05-25T03:13:41;99338.59;;;18.41;100.00
36600;BME280;35385;55.668;37.508;2023-05-25T03:14:42;99335.53;;;18.44;100.00
36600;BME280;35385;55.668;37.508;2023-05-25T03:15:42;99339.25;;;18.43;100.00
36600;BME280;35385;55.668;37.508;2023-05-25T03:16:43;99338.25;;;18.44;100.00
36600;BME280;35385;55.668;37.508;2023-05-25T03:17:43;99335.78;;;18.49;100.00
36600;BME280;35385;55.668;37.508;2023-05-25T03:18:43;99344.56;;;18.51;100.00
36600;BME280;35385;55.668;37.508;2023-05-25T03:19:44;99339.81;;;18.53;100.00
36600;BME280;35385;55.668;37.508;2023-05-25T03:20:44;99337.97;;;18.54;100.00
36600;BME280;35385;55.668;37.508;2023-05-25T03:21:45;99336.28;;;18.53;100.00
36600;BME280;35385;55.668;37.508;2023-05-25T03:22:46;99341.31;;;18.56;100.00
36600;BME280;35385;55.668;37.508;2023-05-25T03:23:46;99348.78;;;18.54;100.00
36600;BME280;35385;55.668;37.508;2023-05-25T03:24:47;99343.19;;;18.55;100.00
36600;BME280;35385;55.668;37.508;2023-05-25T03:25:49;99352.66;;;18.59;100.00
36600;BME280;35385;55.668;37.508;2023-05-25T03:26:49;99340.69;;;18.68;100.00
36600;BME280;35385;55.668;37.508;2023-05-25T03:27:50;99353.09;;;18.78;100.00
36600;BME280;35385;55.668;37.508;2023-05-25T03:28:51;99351.53;;;18.83;100.00
36600;BME280;35385;55.668;37.508;2023-05-25T03:29:51;99348.53;;;18.93;100.00
36600;BME280;35385;55.668;37.508;2023-05-25T03:30:52;99335.59;;;18.88;100.00
36600;BME280;35385;55.668;37.508;2023-05-25T03:31:52;99341.84;;;18.89;100.00
36600;BME280;35385;55.668;37.508;2023-05-25T03:32:52;99335.28;;;18.98;100.00
36600;BME280;35385;55.668;37.508;2023-05-25T03:33:53;99334.78;;;19.09;100.00
36600;BME280;35385;55.668;37.508;2023-05-25T03:34:53;99336.38;;;19.18;100.00
36600;BME280;35385;55.668;37.508;2023-05-25T03:35:54;99329.34;;;19.24;100.00
36600;BME280;35385;55.668;37.508;2023-05-25T03:36:54;99335.03;;;19.29;100.00
36600;BME280;35385;55.668;37.508;2023-05-25T03:37:55;99330.53;;;19.36;100.00
36600;BME280;35385;55.668;37.508;2023-05-25T03:38:55;99329.97;;;19.40;100.00
36600;BME280;35385;55.668;37.508;2023-05-25T03:39:56;99322.50;;;19.42;100.00
36600;BME280;35385;55.668;37.508;2023-05-25T03:40:56;99327.53;;;19.46;100.00
36600;BME280;35385;55.668;37.508;2023-05-25T03:41:56;99323.44;;;19.50;100.00
36600;BME280;35385;55.668;37.508;2023-05-25T03:42:57;99332.19;;;19.52;100.00
36600;BME280;35385;55.668;37.508;2023-05-25T03:43:57;99329.69;;;19.50;100.00
36600;BME280;35385;55.668;37.508;2023-05-25T03:44:58;99332.38;;;19.50;100.00
36600;BME280;35385;55.668;37.508;2023-05-25T03:45:58;99331.81;;;19.55;100.00
36600;BME280;35385;55.668;37.508;2023-05-25T03:46:58;99328.34;;;19.61;100.00
36600;BME280;35385;55.668;37.508;2023-05-25T03:47:59;99333.00;;;19.67;100.00
36600;BME280;35385;55.668;37.508;2023-05-25T03:48:59;99327.91;;;19.57;100.00
36600;BME280;35385;55.668;37.508;2023-05-25T03:50:00;99326.41;;;19.55;100.00
36600;BME280;35385;55.668;37.508;2023-05-25T03:51:00;99324.34;;;19.57;100.00
36600;BME280;35385;55.668;37.508;2023-05-25T03:52:01;99318.59;;;19.66;100.00
36600;BME280;35385;55.668;37.508;2023-05-25T03:53:01;99321.63;;;19.78;100.00
36600;BME280;35385;55.668;37.508;2023-05-25T03:54:02;99331.25;;;19.81;100.00
36600;BME280;35385;55.668;37.508;2023-05-25T03:55:02;99324.59;;;19.83;100.00
36600;BME280;35385;55.668;37.508;2023-05-25T03:56:04;99322.16;;;19.88;100.00
36600;BME280;35385;55.668;37.508;2023-05-25T03:57:05;99328.34;;;19.82;100.00
36600;BME280;35385;55.668;37.508;2023-05-25T03:58:07;99329.25;;;19.89;100.00
36600;BME280;35385;55.668;37.508;2023-05-25T03:59:09;99327.19;;;19.91;100.00
36600;BME280;35385;55.668;37.508;2023-05-25T04:00:09;99322.03;;;19.96;100.00
36600;BME280;35385;55.668;37.508;2023-05-25T04:01:10;99321.47;;;20.07;100.00
36600;BME280;35385;55.668;37.508;2023-05-25T04:02:12;99317.41;;;20.18;100.00
36600;BME280;35385;55.668;37.508;2023-05-25T04:03:12;99318.28;;;20.25;100.00
36600;BME280;35385;55.668;37.508;2023-05-25T04:04:13;99312.03;;;20.25;100.00
36600;BME280;35385;55.668;37.508;2023-05-25T04:05:14;99312.47;;;20.28;100.00
36600;BME280;35385;55.668;37.508;2023-05-25T04:06:15;99314.34;;;20.28;100.00
36600;BME280;35385;55.668;37.508;2023-05-25T04:07:18;99312.28;;;20.30;100.00
36600;BME280;35385;55.668;37.508;2023-05-25T04:08:22;99305.84;;;20.31;100.00
36600;BME280;35385;55.668;37.508;2023-05-25T04:09:22;99308.16;;;20.34;100.00
36600;BME280;35385;55.668;37.508;2023-05-25T04:10:23;99300.81;;;20.34;100.00
36600;BME280;35385;55.668;37.508;2023-05-25T04:11:23;99299.50;;;20.24;100.00
36600;BME280;35385;55.668;37.508;2023-05-25T04:12:25;99294.91;;;20.24;100.00
36600;BME280;35385;55.668;37.508;2023-05-25T04:13:26;99301.00;;;20.26;100.00
36600;BME280;35385;55.668;37.508;2023-05-25T04:14:29;99291.63;;;20.29;100.00
36600;BME280;35385;55.668;37.508;2023-05-25T04:15:32;99293.13;;;20.31;100.00
36600;BME280;35385;55.668;37.508;2023-05-25T04:16:33;99295.00;;;20.31;100.00
36600;BME280;35385;55.668;37.508;2023-05-25T04:17:34;99297.09;;;20.35;100.00
36600;BME280;35385;55.668;37.508;2023-05-25T04:18:35;99297.94;;;20.36;100.00
36600;BME280;35385;55.668;37.508;2023-05-25T04:19:35;99296.34;;;20.41;100.00
36600;BME280;35385;55.668;37.508;2023-05-25T04:20:36;99293.88;;;20.46;100.00
36600;BME280;35385;55.668;37.508;2023-05-25T04:21:36;99298.50;;;20.53;100.00
36600;BME280;35385;55.668;37.508;2023-05-25T04:22:36;99293.03;;;20.46;100.00
36600;BME280;35385;55.668;37.508;2023-05-25T04:23:37;99292.63;;;20.49;100.00
36600;BME280;35385;55.668;37.508;2023-05-25T04:24:38;99302.84;;;20.47;100.00
36600;BME280;35385;55.668;37.508;2023-05-25T04:25:38;99295.81;;;20.31;100.00
36600;BME280;35385;55.668;37.508;2023-05-25T04:26:38;99300.91;;;20.41;100.00
36600;BME280;35385;55.668;37.508;2023-05-25T04:27:40;99301.00;;;20.54;100.00
36600;BME280;35385;55.668;37.508;2023-05-25T04:28:44;99296.88;;;20.58;100.00
36600;BME280;35385;55.668;37.508;2023-05-25T04:29:45;99294.78;;;20.60;100.00
36600;BME280;35385;55.668;37.508;2023-05-25T04:30:45;99298.56;;;20.66;100.00
36600;BME280;35385;55.668;37.508;2023-05-25T04:31:47;99293.38;;;20.71;100.00
36600;BME280;35385;55.668;37.508;2023-05-25T04:32:48;99295.66;;;20.67;100.00
36600;BME280;35385;55.668;37.508;2023-05-25T04:33:49;99294.47;;;20.76;100.00
36600;BME280;35385;55.668;37.508;2023-05-25T04:34:49;99292.88;;;20.95;100.00
36600;BME280;35385;55.668;37.508;2023-05-25T04:35:50;99293.34;;;21.12;100.00
36600;BME280;35385;55.668;37.508;2023-05-25T04:36:50;99294.28;;;21.26;100.00
36600;BME280;35385;55.668;37.508;2023-05-25T04:37:51;99290.34;;;21.41;100.00
36600;BME280;35385;55.668;37.508;2023-05-25T04:38:53;99291.78;;;21.37;100.00
36600;BME280;35385;55.668;37.508;2023-05-25T04:39:53;99285.31;;;21.38;100.00
36600;BME280;35385;55.668;37.508;2023-05-25T04:40:56;99288.50;;;21.48;100.00
36600;BME280;35385;55.668;37.508;2023-05-25T04:41:57;99290.75;;;21.38;100.00
36600;BME280;35385;55.668;37.508;2023-05-25T04:42:58;99300.22;;;21.49;100.00
36600;BME280;35385;55.668;37.508;2023-05-25T04:43:58;99298.97;;;21.65;100.00
36600;BME280;35385;55.668;37.508;2023-05-25T04:44:58;99304.00;;;21.74;100.00
36600;BME280;35385;55.668;37.508;2023-05-25T04:45:59;99292.91;;;21.63;100.00
36600;BME280;35385;55.668;37.508;2023-05-25T04:47:00;99296.47;;;21.70;100.00
36600;BME280;35385;55.668;37.508;2023-05-25T04:48:00;99289.72;;;21.39;100.00
36600;BME280;35385;55.668;37.508;2023-05-25T04:49:02;99289.53;;;21.54;100.00
36600;BME280;35385;55.668;37.508;2023-05-25T04:50:04;99296.88;;;21.67;100.00
36600;BME280;35385;55.668;37.508;2023-05-25T04:51:05;99297.69;;;21.54;100.00
36600;BME280;35385;55.668;37.508;2023-05-25T04:52:05;99297.22;;;21.37;100.00
36600;BME280;35385;55.668;37.508;2023-05-25T04:53:06;99298.66;;;21.27;100.00
36600;BME280;35385;55.668;37.508;2023-05-25T04:54:06;99305.56;;;21.29;100.00
36600;BME280;35385;55.668;37.508;2023-05-25T04:55:07;99308.53;;;21.41;100.00
36600;BME280;35385;55.668;37.508;2023-05-25T04:56:07;99304.38;;;21.51;100.00
36600;BME280;35385;55.668;37.508;2023-05-25T04:57:08;99298.31;;;21.56;100.00
36600;BME280;35385;55.668;37.508;2023-05-25T04:58:08;99298.34;;;21.63;100.00
36600;BME280;35385;55.668;37.508;2023-05-25T04:59:11;99292.31;;;21.74;100.00
36600;BME280;35385;55.668;37.508;2023-05-25T05:00:11;99300.66;;;21.85;100.00
36600;BME280;35385;55.668;37.508;2023-05-25T05:01:14;99290.25;;;22.02;100.00
36600;BME280;35385;55.668;37.508;2023-05-25T05:02:15;99291.09;;;22.16;100.00
36600;BME280;35385;55.668;37.508;2023-05-25T05:03:16;99291.69;;;22.25;100.00
36600;BME280;35385;55.668;37.508;2023-05-25T05:04:17;99293.38;;;22.32;100.00
36600;BME280;35385;55.668;37.508;2023-05-25T05:05:19;99293.38;;;22.26;100.00
36600;BME280;35385;55.668;37.508;2023-05-25T05:06:20;99296.94;;;22.26;100.00
36600;BME280;35385;55.668;37.508;2023-05-25T05:07:21;99296.53;;;22.29;100.00
36600;BME280;35385;55.668;37.508;2023-05-25T05:08:21;99296.94;;;22.13;100.00
36600;BME280;35385;55.668;37.508;2023-05-25T05:09:22;99298.63;;;22.07;100.00
36600;BME280;35385;55.668;37.508;2023-05-25T05:10:22;99292.56;;;22.05;100.00
36600;BME280;35385;55.668;37.508;2023-05-25T05:11:23;99297.56;;;22.08;100.00
36600;BME280;35385;55.668;37.508;2023-05-25T05:12:23;99297.78;;;22.13;100.00
36600;BME280;35385;55.668;37.508;2023-05-25T05:13:23;99301.13;;;22.15;100.00
36600;BME280;35385;55.668;37.508;2023-05-25T05:14:24;99298.19;;;22.10;100.00
36600;BME280;35385;55.668;37.508;2023-05-25T05:15:24;99298.19;;;22.10;100.00
36600;BME280;35385;55.668;37.508;2023-05-25T05:16:25;99298.81;;;22.12;100.00
36600;BME280;35385;55.668;37.508;2023-05-25T05:17:25;99299.22;;;21.96;100.00
36600;BME280;35385;55.668;37.508;2023-05-25T05:18:27;99285.63;;;21.96;100.00
36600;BME280;35385;55.668;37.508;2023-05-25T05:19:28;99293.38;;;21.99;100.00